Time;durP1;ratioP1;P1;durP2;ratioP2;P2;SDS_P1;SDS_P2;PMS_P1;PMS_P2;Temp;Humidity;BMP_temperature;BMP_pressure;BME280_temperature;BME280_humidity;BME280_pressure;Samples;Min_cycle;Max_cycle;Signal;HPM_P1;HPM_P2
2023/11/29 00:01:33;;;;;;;6.43;2.85;;;;;;;25.14;36.30;98020.94;4346823;33;34954;-61
2023/11/29 00:04:01;;;;;;;6.68;2.45;;;;;;;25.12;36.32;98012.19;4346778;33;33993;-60
2023/11/29 00:06:28;;;;;;;11.85;3.08;;;;;;;25.10;36.32;98012.50;4346869;33;33703;-60
2023/11/29 00:08:57;;;;;;;5.40;2.70;;;;;;;25.08;36.33;98027.50;4347185;33;33995;-61
2023/11/29 00:11:25;;;;;;;5.37;2.58;;;;;;;25.05;36.35;98022.59;4346534;33;34234;-60
2023/11/29 00:13:52;;;;;;;10.65;2.72;;;;;;;25.05;36.56;98028.06;4346684;33;33944;-61
2023/11/29 00:16:20;;;;;;;6.78;2.70;;;;;;;25.02;36.65;98023.94;4346955;33;33780;-60
2023/11/29 00:18:48;;;;;;;5.80;2.72;;;;;;;25.01;36.59;98010.59;4346620;33;34075;-60
2023/11/29 00:21:16;;;;;;;10.98;3.15;;;;;;;24.99;36.52;98027.22;4346818;33;34809;-60
2023/11/29 00:23:44;;;;;;;6.82;2.42;;;;;;;24.98;36.57;98035.72;4346743;33;33916;-60
2023/11/29 00:26:12;;;;;;;5.70;2.62;;;;;;;24.96;36.51;98038.72;4345590;33;33420;-60
2023/11/29 00:28:41;;;;;;;7.90;2.55;;;;;;;24.94;36.58;98032.72;4346781;33;33946;-60
2023/11/29 00:31:08;;;;;;;7.32;2.90;;;;;;;24.93;36.60;98023.72;4346523;33;34215;-60
2023/11/29 00:33:37;;;;;;;8.88;2.90;;;;;;;24.91;36.69;98038.75;4346369;33;33978;-60
2023/11/29 00:36:04;;;;;;;13.90;6.87;;;;;;;24.89;36.67;98036.28;4346525;33;33525;-64
2023/11/29 00:38:32;;;;;;;10.55;5.65;;;;;;;24.78;32.70;98021.06;4333207;33;33903;-64
2023/11/29 00:41:00;;;;;;;7.72;3.85;;;;;;;24.72;33.81;98026.81;4346455;33;34027;-60
2023/11/29 00:43:27;;;;;;;7.50;4.93;;;;;;;24.64;34.41;98029.00;4346365;33;33745;-60
2023/11/29 00:45:55;;;;;;;7.47;4.53;;;;;;;24.63;34.61;98048.38;4346174;33;33469;-60
2023/11/29 00:48:22;;;;;;;7.72;4.70;;;;;;;24.61;34.77;98058.72;4345971;33;33684;-60
2023/11/29 00:50:51;;;;;;;7.87;4.40;;;;;;;24.60;35.12;98074.28;4346362;33;33611;-60
2023/11/29 00:53:19;;;;;;;8.23;3.85;;;;;;;24.58;35.21;98079.19;4346242;33;34786;-60
2023/11/29 00:55:47;;;;;;;8.15;3.80;;;;;;;24.59;35.28;98086.28;4346121;33;33580;-60
2023/11/29 00:58:14;;;;;;;6.50;3.87;;;;;;;24.58;35.34;98103.75;4346154;33;34011;-60
2023/11/29 01:00:42;;;;;;;6.80;4.22;;;;;;;24.57;35.43;98113.00;4346437;33;35460;-60
2023/11/29 01:03:09;;;;;;;8.50;4.12;;;;;;;24.55;35.51;98109.72;4345942;33;33935;-60
2023/11/29 01:05:37;;;;;;;8.27;4.47;;;;;;;24.55;35.58;98120.63;4346216;33;33658;-60
2023/11/29 01:08:04;;;;;;;8.20;4.75;;;;;;;24.54;35.65;98104.56;4345358;32;34564;-60
2023/11/29 01:10:32;;;;;;;7.22;3.95;;;;;;;24.53;35.73;98102.91;4345818;33;34107;-60
2023/11/29 01:13:00;;;;;;;8.35;4.12;;;;;;;24.52;35.71;98106.72;4345798;33;34640;-60
2023/11/29 01:15:27;;;;;;;7.18;3.60;;;;;;;24.51;35.73;98100.47;4344939;33;32762;-60
2023/11/29 01:17:55;;;;;;;12.00;4.18;;;;;;;24.50;35.79;98103.47;4345374;33;34746;-60
2023/11/29 01:20:23;;;;;;;6.45;3.70;;;;;;;24.48;35.88;98098.31;4345851;33;34754;-60
2023/11/29 01:22:50;;;;;;;8.27;3.80;;;;;;;24.48;35.88;98111.09;4345831;33;33915;-60
2023/11/29 01:25:18;;;;;;;8.40;3.83;;;;;;;24.47;35.89;98113.00;4345690;33;34194;-60
2023/11/29 01:27:45;;;;;;;6.40;3.92;;;;;;;24.46;35.92;98114.09;4345670;33;35409;-60
2023/11/29 01:30:13;;;;;;;7.65;3.80;;;;;;;24.45;35.95;98114.38;4345808;33;34896;-60
2023/11/29 01:32:41;;;;;;;8.63;4.12;;;;;;;24.43;36.03;98118.22;4345561;33;33822;-60
2023/11/29 01:35:09;;;;;;;8.27;4.10;;;;;;;24.43;36.09;98120.09;4345703;32;32961;-60
2023/11/29 01:37:37;;;;;;;9.05;3.75;;;;;;;24.41;36.08;98130.47;4345906;33;34097;-60
2023/11/29 01:40:08;;;;;;;8.88;3.83;;;;;;;24.39;36.12;98135.38;4348064;33;33928;-60
2023/11/29 01:42:36;;;;;;;7.45;3.92;;;;;;;24.38;36.09;98129.09;4347944;33;34547;-60
2023/11/29 01:45:04;;;;;;;5.35;3.20;;;;;;;24.38;36.06;98134.53;4347711;33;33579;-60
2023/11/29 01:47:37;;;;;;;11.23;3.92;;;;;;;24.37;36.13;98153.91;4347926;33;34228;-60
2023/11/29 01:50:05;;;;;;;6.70;3.42;;;;;;;24.36;36.16;98160.44;4346548;33;34913;-60
2023/11/29 01:52:33;;;;;;;9.05;3.60;;;;;;;24.34;36.17;98168.88;4347679;33;34264;-60
2023/11/29 01:55:02;;;;;;;6.87;4.00;;;;;;;24.34;36.21;98165.31;4347897;33;33388;-59
2023/11/29 01:57:29;;;;;;;7.80;3.45;;;;;;;24.33;36.27;98169.13;4347774;33;34088;-61
2023/11/29 01:59:57;;;;;;;6.97;3.40;;;;;;;24.31;36.31;98172.16;4347954;33;34074;-60
2023/11/29 02:02:25;;;;;;;6.75;3.40;;;;;;;24.30;36.33;98175.16;4347757;33;34154;-60
2023/11/29 02:04:55;;;;;;;5.85;3.33;;;;;;;24.30;36.36;98161.53;4347764;33;34248;-60
2023/11/29 02:07:22;;;;;;;9.25;3.55;;;;;;;24.29;36.40;98176.22;4347626;33;34128;-60
2023/11/29 02:09:50;;;;;;;8.07;3.45;;;;;;;24.28;36.50;98189.03;4347676;33;34120;-60
2023/11/29 02:12:20;;;;;;;10.98;3.62;;;;;;;24.26;36.50;98196.66;4347583;33;34618;-60
2023/11/29 02:14:48;;;;;;;5.22;3.12;;;;;;;24.25;36.57;98199.66;4347617;33;34526;-60
2023/11/29 02:17:16;;;;;;;6.35;3.37;;;;;;;24.26;36.61;98209.47;4347534;33;35110;-60
2023/11/29 02:19:43;;;;;;;8.10;3.92;;;;;;;24.24;36.66;98222.53;4347668;33;34952;-60
2023/11/29 02:22:11;;;;;;;5.70;3.25;;;;;;;24.22;36.80;98222.00;4347576;33;34728;-60
2023/11/29 02:24:42;;;;;;;7.25;3.75;;;;;;;24.21;36.74;98215.75;4334303;33;34193;-60
2023/11/29 02:27:10;;;;;;;8.27;4.12;;;;;;;24.20;36.76;98227.72;4347396;33;34747;-60
2023/11/29 02:29:38;;;;;;;6.37;3.22;;;;;;;24.19;36.70;98224.16;4347894;33;34874;-60
2023/11/29 02:32:06;;;;;;;5.47;3.20;;;;;;;24.18;36.74;98228.00;4347531;33;34669;-60
2023/11/29 02:34:37;;;;;;;6.43;3.33;;;;;;;24.18;36.86;98232.63;4347319;33;33273;-60
2023/11/29 02:37:04;;;;;;;9.25;3.20;;;;;;;24.17;36.94;98241.91;4347586;33;34138;-60
2023/11/29 02:39:32;;;;;;;6.18;3.53;;;;;;;24.15;36.92;98236.72;4347566;33;33904;-60
2023/11/29 02:42:00;;;;;;;5.53;3.60;;;;;;;24.15;36.89;98247.63;4347194;33;34235;-60
2023/11/29 02:44:27;;;;;;;6.68;3.60;;;;;;;24.14;36.89;98254.13;4347559;33;33738;-60
2023/11/29 02:46:55;;;;;;;5.57;3.33;;;;;;;24.13;36.85;98266.13;4347482;33;34692;-60
2023/11/29 02:49:24;;;;;;;5.78;3.05;;;;;;;24.12;36.98;98280.84;4346439;33;34544;-60
2023/11/29 02:51:51;;;;;;;8.52;4.07;;;;;;;24.11;36.99;98290.12;4347420;33;34649;-60
2023/11/29 02:54:19;;;;;;;8.20;3.37;;;;;;;24.10;37.09;98283.00;4347662;33;33605;-60
2023/11/29 02:56:46;;;;;;;6.87;3.10;;;;;;;24.10;37.07;98296.63;4347248;33;34115;-60
2023/11/29 02:59:14;;;;;;;6.87;3.67;;;;;;;24.08;37.00;98295.28;4347366;33;34041;-60
2023/11/29 03:01:41;;;;;;;10.50;3.53;;;;;;;24.07;37.07;98299.09;4347725;33;33757;-60
2023/11/29 03:04:09;;;;;;;6.62;3.35;;;;;;;24.06;37.03;98317.34;4347506;33;33527;-60
2023/11/29 03:06:36;;;;;;;5.85;3.42;;;;;;;24.05;37.05;98315.69;4347333;33;33848;-61
2023/11/29 03:09:04;;;;;;;7.43;3.37;;;;;;;24.06;37.13;98314.63;4347301;33;33714;-60
2023/11/29 03:11:32;;;;;;;6.45;3.30;;;;;;;24.05;37.12;98329.31;4347041;33;33745;-60
2023/11/29 03:13:59;;;;;;;5.65;3.33;;;;;;;24.03;37.14;98334.22;4347277;33;34286;-60
2023/11/29 03:16:27;;;;;;;6.28;3.37;;;;;;;24.02;37.18;98348.94;4347287;33;34700;-60
2023/11/29 03:18:54;;;;;;;7.40;3.17;;;;;;;24.02;37.22;98348.13;4347150;33;34103;-60
2023/11/29 03:21:22;;;;;;;6.15;3.22;;;;;;;24.01;37.25;98355.44;4347543;33;33885;-60
2023/11/29 03:23:49;;;;;;;4.87;2.87;;;;;;;24.00;37.32;98367.44;4347209;33;34191;-60
2023/11/29 03:26:17;;;;;;;7.25;3.30;;;;;;;23.99;37.35;98373.16;4347092;33;34038;-60
2023/11/29 03:28:46;;;;;;;7.57;3.60;;;;;;;23.97;37.44;98370.72;4347244;33;34451;-60
2023/11/29 03:31:13;;;;;;;5.18;3.28;;;;;;;23.97;37.42;98364.41;4347158;33;34728;-60
2023/11/29 03:33:41;;;;;;;5.47;3.28;;;;;;;23.96;37.46;98382.66;4346944;32;34244;-60
2023/11/29 03:36:09;;;;;;;5.72;2.85;;;;;;;23.96;37.50;98385.37;4347102;33;33739;-60
2023/11/29 03:38:37;;;;;;;6.47;3.50;;;;;;;23.95;37.54;98391.94;4347166;33;34139;-60
2023/11/29 03:41:05;;;;;;;6.95;3.50;;;;;;;23.94;37.59;98398.47;4346968;33;34703;-60
2023/11/29 03:43:32;;;;;;;6.15;3.55;;;;;;;23.93;37.62;98394.94;4347189;33;34187;-60
2023/11/29 03:46:00;;;;;;;7.65;3.15;;;;;;;23.92;37.57;98397.91;4347150;33;33921;-60
2023/11/29 03:48:28;;;;;;;6.00;3.55;;;;;;;23.91;37.67;98393.53;4346915;33;33716;-60
2023/11/29 03:50:55;;;;;;;6.60;3.60;;;;;;;23.91;37.82;98409.88;4346970;33;34098;-59
2023/11/29 03:53:23;;;;;;;5.43;3.08;;;;;;;23.89;37.77;98414.78;4347006;33;34219;-59
2023/11/29 03:55:51;;;;;;;7.93;3.17;;;;;;;23.90;37.87;98419.12;4346951;33;33912;-60
2023/11/29 03:58:18;;;;;;;5.85;3.03;;;;;;;23.89;37.89;98412.06;4347030;33;34941;-60
2023/11/29 04:00:46;;;;;;;5.53;3.03;;;;;;;23.88;37.87;98419.41;4346792;33;33929;-60
2023/11/29 04:03:13;;;;;;;4.70;2.87;;;;;;;23.86;37.89;98426.19;4346996;33;34520;-61
2023/11/29 04:05:41;;;;;;;7.72;3.00;;;;;;;23.87;37.92;98436.00;4346818;33;33827;-60
2023/11/29 04:08:10;;;;;;;6.82;2.97;;;;;;;23.87;37.91;98436.00;4346823;33;34127;-60
2023/11/29 04:10:38;;;;;;;7.43;2.75;;;;;;;23.85;37.95;98441.72;4346807;33;34081;-60
2023/11/29 04:13:05;;;;;;;5.70;3.22;;;;;;;23.85;38.03;98449.06;4346802;33;33599;-60
2023/11/29 04:15:32;;;;;;;5.45;2.87;;;;;;;23.84;38.02;98447.44;4346795;33;34980;-59
2023/11/29 04:18:01;;;;;;;6.37;2.95;;;;;;;23.84;38.01;98455.59;4333765;33;33724;-60
2023/11/29 04:20:28;;;;;;;9.98;3.03;;;;;;;23.83;37.97;98473.03;4346704;33;33585;-60
2023/11/29 04:22:56;;;;;;;6.12;2.65;;;;;;;23.83;37.97;98470.31;4346608;33;33686;-60
2023/11/29 04:25:24;;;;;;;5.70;3.28;;;;;;;23.83;38.02;98473.03;4346679;33;33665;-60
2023/11/29 04:27:52;;;;;;;6.57;3.25;;;;;;;23.81;38.01;98480.62;4346681;33;34890;-60
2023/11/29 04:30:19;;;;;;;5.47;3.03;;;;;;;23.81;38.01;98480.62;4346737;33;33966;-60
2023/11/29 04:32:50;;;;;;;4.85;2.65;;;;;;;23.81;37.98;98502.44;4346577;33;33154;-60
2023/11/29 04:35:17;;;;;;;4.95;2.90;;;;;;;23.79;38.05;98505.41;4346475;33;34705;-60
2023/11/29 04:37:45;;;;;;;6.32;2.90;;;;;;;23.78;37.98;98511.97;4346327;33;34076;-60
2023/11/29 04:40:13;;;;;;;6.93;2.92;;;;;;;23.79;37.97;98518.22;4346857;33;33730;-60
2023/11/29 04:42:41;;;;;;;5.43;3.25;;;;;;;23.79;38.09;98523.66;4346775;33;34210;-60
2023/11/29 04:45:08;;;;;;;4.70;2.70;;;;;;;23.78;38.18;98532.91;4346180;33;34862;-60
2023/11/29 04:47:36;;;;;;;5.15;3.08;;;;;;;23.77;38.12;98536.72;4346338;33;34891;-60
2023/11/29 04:50:04;;;;;;;6.35;3.10;;;;;;;23.76;38.16;98538.63;4346210;33;34715;-60
2023/11/29 04:52:33;;;;;;;4.82;3.10;;;;;;;23.74;38.20;98543.50;4346295;33;33130;-60
2023/11/29 04:55:01;;;;;;;5.50;3.08;;;;;;;23.74;38.25;98542.69;4346503;33;34021;-60
2023/11/29 04:57:30;;;;;;;7.32;2.90;;;;;;;23.75;38.14;98541.59;4346480;33;34736;-60
2023/11/29 04:59:57;;;;;;;7.05;3.28;;;;;;;23.72;38.16;98532.03;4346129;33;34293;-60
2023/11/29 05:02:25;;;;;;;7.97;3.08;;;;;;;23.71;38.25;98527.69;4346428;33;33459;-60
2023/11/29 05:04:53;;;;;;;4.85;2.87;;;;;;;23.70;38.26;98534.22;4346406;33;34294;-60
2023/11/29 05:07:20;;;;;;;10.90;3.28;;;;;;;23.72;38.22;98539.38;4346196;33;34040;-60
2023/11/29 05:09:48;;;;;;;6.55;2.72;;;;;;;23.69;38.23;98538.03;4346048;33;33975;-60
2023/11/29 05:12:15;;;;;;;5.37;2.80;;;;;;;23.70;38.22;98541.56;4346210;33;33768;-59
2023/11/29 05:14:43;;;;;;;6.03;2.90;;;;;;;23.68;38.21;98537.19;4347831;33;34786;-60
2023/11/29 05:17:13;;;;;;;5.35;3.08;;;;;;;23.67;38.18;98532.81;4348119;33;35057;-60
2023/11/29 05:19:40;;;;;;;4.37;2.75;;;;;;;23.67;38.24;98540.16;4348123;33;34011;-60
2023/11/29 05:22:07;;;;;;;4.50;2.60;;;;;;;23.67;38.20;98526.56;4347988;33;34401;-60
2023/11/29 05:24:35;;;;;;;5.85;2.58;;;;;;;23.65;38.20;98531.44;4347988;33;33738;-60
2023/11/29 05:27:03;;;;;;;5.03;2.85;;;;;;;23.65;38.23;98534.16;4347986;33;34874;-60
2023/11/29 05:29:30;;;;;;;4.80;3.00;;;;;;;23.64;38.30;98529.78;4348187;33;33904;-60
2023/11/29 05:31:58;;;;;;;6.03;2.92;;;;;;;23.62;38.15;98534.62;4348031;33;33287;-60
2023/11/29 05:34:25;;;;;;;8.05;3.10;;;;;;;23.63;38.19;98530.84;4347787;32;33754;-60
2023/11/29 05:36:54;;;;;;;4.75;2.92;;;;;;;23.62;38.24;98532.75;4347991;33;34667;-60
2023/11/29 05:39:22;;;;;;;15.25;4.40;;;;;;;23.62;38.24;98535.47;4347872;33;33610;-60
2023/11/29 05:41:50;;;;;;;5.60;2.70;;;;;;;23.60;38.27;98531.38;4347911;33;34309;-61
2023/11/29 05:44:17;;;;;;;5.57;2.83;;;;;;;23.59;38.25;98527.78;4348190;33;33982;-60
2023/11/29 05:46:45;;;;;;;5.37;3.15;;;;;;;23.60;38.18;98534.09;4347907;33;34859;-60
2023/11/29 05:49:14;;;;;;;7.72;2.97;;;;;;;23.58;38.27;98531.59;4347579;33;33938;-60
2023/11/29 05:51:42;;;;;;;7.55;2.58;;;;;;;23.58;38.23;98537.06;4347738;33;33554;-60
2023/11/29 05:54:10;;;;;;;5.05;2.62;;;;;;;23.59;38.16;98548.75;4348129;33;34718;-60
2023/11/29 05:56:38;;;;;;;4.75;2.80;;;;;;;23.59;38.18;98562.38;4347826;33;34142;-60
2023/11/29 05:59:05;;;;;;;5.85;3.08;;;;;;;23.59;38.20;98570.53;4347578;33;34854;-60
2023/11/29 06:01:33;;;;;;;5.28;2.97;;;;;;;23.58;38.15;98586.06;4347784;33;34335;-60
2023/11/29 06:04:01;;;;;;;5.57;2.67;;;;;;;23.58;38.19;98585.25;4347526;33;34310;-60
2023/11/29 06:06:28;;;;;;;4.95;2.95;;;;;;;23.58;38.23;98588.78;4347771;33;34496;-60
2023/11/29 06:08:57;;;;;;;5.55;2.65;;;;;;;23.57;38.29;98589.88;4347759;33;34317;-60
2023/11/29 06:11:26;;;;;;;6.28;2.85;;;;;;;23.56;38.27;98595.59;4347620;33;33687;-60
2023/11/29 06:13:53;;;;;;;5.40;2.83;;;;;;;23.55;38.31;98600.22;4347664;33;34498;-60
2023/11/29 06:16:23;;;;;;;5.82;2.80;;;;;;;23.55;38.31;98607.53;4347683;33;33638;-60
2023/11/29 06:18:50;;;;;;;10.77;3.03;;;;;;;23.54;38.29;98608.63;4347549;33;33976;-59
2023/11/29 06:21:18;;;;;;;9.30;2.92;;;;;;;23.53;38.26;98605.06;4347588;33;34374;-59
2023/11/29 06:23:45;;;;;;;5.00;2.53;;;;;;;23.52;38.23;98605.34;4347366;33;33861;-60
2023/11/29 06:26:13;;;;;;;4.87;2.60;;;;;;;23.52;38.18;98610.78;4346959;33;33827;-60
2023/11/29 06:28:41;;;;;;;5.07;2.60;;;;;;;23.52;38.27;98611.59;4347628;33;33492;-60
2023/11/29 06:31:09;;;;;;;7.18;3.05;;;;;;;23.52;38.36;98618.94;4347575;33;33354;-60
2023/11/29 06:33:36;;;;;;;5.82;2.60;;;;;;;23.52;38.28;98624.41;4347261;32;34705;-60
2023/11/29 06:36:04;;;;;;;4.90;2.37;;;;;;;23.49;38.34;98625.72;4347481;33;34932;-64
2023/11/29 06:38:32;;;;;;;10.48;3.33;;;;;;;23.50;38.29;98623.81;4347559;33;34068;-64
2023/11/29 06:41:00;;;;;;;8.15;2.87;;;;;;;23.51;38.11;98628.19;4346102;33;33586;-64
2023/11/29 06:43:28;;;;;;;5.28;2.70;;;;;;;23.50;38.01;98627.38;4347477;33;34634;-64
2023/11/29 06:45:56;;;;;;;6.57;3.25;;;;;;;23.51;37.89;98636.37;4347360;33;33612;-64
2023/11/29 06:48:23;;;;;;;7.20;3.20;;;;;;;23.50;37.66;98637.44;4343424;32;33829;-65
2023/11/29 06:50:53;;;;;;;9.60;3.65;;;;;;;23.51;37.66;98639.09;4332647;33;34967;-64
2023/11/29 06:53:21;;;;;;;6.95;3.45;;;;;;;23.50;37.71;98643.72;4331432;33;33021;-65
2023/11/29 06:55:49;;;;;;;7.95;3.42;;;;;;;23.52;37.67;98652.44;4332564;33;33856;-65
2023/11/29 06:58:17;;;;;;;8.07;3.80;;;;;;;23.52;37.60;98655.16;4332283;33;34063;-65
2023/11/29 07:00:50;;;;;;;6.85;3.65;;;;;;;23.50;37.65;98651.87;4326488;33;34335;-65
2023/11/29 07:03:18;;;;;;;6.28;3.50;;;;;;;23.51;37.60;98658.97;4332624;33;34729;-64
2023/11/29 07:05:45;;;;;;;11.25;3.40;;;;;;;23.51;37.55;98660.88;4331378;33;33370;-64
2023/11/29 07:08:13;;;;;;;7.97;3.87;;;;;;;23.52;37.48;98668.78;4332462;33;33922;-63
2023/11/29 07:10:41;;;;;;;24.33;4.37;;;;;;;23.52;37.46;98674.22;4333354;33;33514;-65
2023/11/29 07:13:08;;;;;;;16.80;4.50;;;;;;;23.53;37.60;98677.78;4346803;33;33816;-64
2023/11/29 07:15:36;;;;;;;17.55;4.15;;;;;;;23.51;37.67;98688.91;4347098;33;33542;-64
2023/11/29 07:18:03;;;;;;;18.17;4.28;;;;;;;23.50;37.66;98690.00;4347327;33;33957;-64
2023/11/29 07:20:31;;;;;;;10.93;4.22;;;;;;;23.50;37.64;98691.88;4347189;33;33140;-65
2023/11/29 07:23:10;;;;;;;15.77;4.40;;;;;;;23.50;37.62;98687.28;4334781;33;34097;-64
2023/11/29 07:25:37;;;;;;;10.73;3.62;;;;;;;23.51;37.54;98702.53;4346450;33;34850;-64
2023/11/29 07:28:04;;;;;;;12.73;3.45;;;;;;;23.51;37.50;98709.88;4345142;33;33942;-64
2023/11/29 07:30:32;;;;;;;11.35;3.45;;;;;;;23.50;37.44;98710.94;4344846;33;33385;-65
2023/11/29 07:33:00;;;;;;;13.93;4.12;;;;;;;23.49;37.41;98718.28;4345399;32;34218;-64
2023/11/29 07:35:27;;;;;;;12.18;3.45;;;;;;;23.48;37.46;98722.09;4344724;33;33614;-64
2023/11/29 07:37:55;;;;;;;7.07;3.25;;;;;;;23.48;37.45;98729.44;4345124;33;34007;-64
2023/11/29 07:40:23;;;;;;;9.60;3.83;;;;;;;23.47;37.44;98730.50;4345468;33;33369;-64
2023/11/29 07:42:50;;;;;;;8.60;3.55;;;;;;;23.47;37.43;98738.69;4345481;33;33997;-64
2023/11/29 07:45:18;;;;;;;7.78;3.50;;;;;;;23.46;37.40;98746.03;4345426;33;33706;-64
2023/11/29 07:47:45;;;;;;;9.00;3.50;;;;;;;23.46;37.36;98746.03;4333783;33;33915;-64
2023/11/29 07:50:14;;;;;;;8.70;3.37;;;;;;;23.45;37.33;98738.91;4346951;33;33481;-64
2023/11/29 07:52:42;;;;;;;13.95;3.70;;;;;;;23.44;37.28;98737.28;4347008;33;34465;-64
2023/11/29 07:55:10;;;;;;;6.85;3.20;;;;;;;23.43;37.31;98735.63;4347169;33;33989;-64
2023/11/29 07:57:37;;;;;;;6.78;3.40;;;;;;;23.42;37.32;98740.25;4347024;33;33584;-64
2023/11/29 08:00:06;;;;;;;6.10;3.35;;;;;;;23.42;37.25;98742.16;4347016;33;34442;-64
2023/11/29 08:02:39;;;;;;;8.35;3.75;;;;;;;23.41;37.26;98743.25;4346855;33;33891;-64
2023/11/29 08:05:08;;;;;;;12.75;3.90;;;;;;;23.41;37.23;98740.53;4346706;33;34455;-64
2023/11/29 08:07:36;;;;;;;8.88;3.37;;;;;;;23.40;37.21;98744.28;4333534;33;34821;-64
2023/11/29 08:10:04;;;;;;;9.43;3.53;;;;;;;23.40;37.20;98747.84;4346939;33;33122;-64
2023/11/29 08:12:32;;;;;;;10.35;3.55;;;;;;;23.39;37.21;98743.47;4346631;33;35014;-64
2023/11/29 08:14:59;;;;;;;7.45;3.50;;;;;;;23.39;37.15;98746.19;4347026;33;33899;-64
2023/11/29 08:17:27;;;;;;;10.18;3.75;;;;;;;23.39;37.17;98756.25;4346894;33;33732;-64
2023/11/29 08:19:55;;;;;;;5.47;3.25;;;;;;;23.39;37.11;98759.00;4346634;33;34318;-63
2023/11/29 08:22:22;;;;;;;5.57;3.10;;;;;;;23.39;37.08;98770.69;4346815;33;33933;-64
2023/11/29 08:24:50;;;;;;;8.00;3.40;;;;;;;23.39;37.13;98773.41;4346719;33;35326;-64
2023/11/29 08:27:19;;;;;;;7.72;3.08;;;;;;;23.38;37.12;98790.84;4346485;33;34608;-64
2023/11/29 08:29:47;;;;;;;7.60;3.30;;;;;;;23.38;37.10;98781.84;4346893;33;33604;-64
2023/11/29 08:32:15;;;;;;;7.05;3.22;;;;;;;23.38;37.07;98790.84;4345373;33;33797;-65
2023/11/29 08:34:44;;;;;;;7.20;3.28;;;;;;;23.39;37.04;98788.94;4348591;32;34208;-65
2023/11/29 08:37:11;;;;;;;6.75;3.47;;;;;;;23.38;37.06;98790.00;4346528;33;33618;-65
2023/11/29 08:39:39;;;;;;;7.40;3.17;;;;;;;23.38;37.00;98803.63;4346598;33;33409;-65
2023/11/29 08:42:07;;;;;;;8.55;3.25;;;;;;;23.37;37.00;98807.44;4346403;33;33917;-64
2023/11/29 08:44:34;;;;;;;4.87;3.25;;;;;;;23.36;36.99;98806.59;4346397;33;34003;-66
2023/11/29 08:47:03;;;;;;;6.40;3.45;;;;;;;23.35;36.98;98813.09;4346455;33;34608;-64
2023/11/29 08:49:32;;;;;;;;;;;;;;;23.35;36.97;98821.25;4348227;33;33894;-63
2023/11/29 08:51:59;;;;;;;8.52;3.35;;;;;;;23.45;36.79;98823.31;4348287;33;35024;-64
2023/11/29 08:54:26;;;;;;;9.15;3.67;;;;;;;23.36;36.89;98827.53;4347023;33;34870;-63
2023/11/29 08:56:54;;;;;;;6.37;3.42;;;;;;;23.34;36.87;98827.78;4348218;33;33804;-64
2023/11/29 08:59:22;;;;;;;9.05;3.53;;;;;;;23.33;36.90;98836.22;4348159;33;33597;-63
2023/11/29 09:01:49;;;;;;;11.15;3.80;;;;;;;23.34;36.84;98837.84;4348141;33;34770;-64
2023/11/29 09:04:17;;;;;;;9.88;3.78;;;;;;;23.32;36.86;98846.28;4348055;33;33794;-64
2023/11/29 09:06:45;;;;;;;6.20;3.10;;;;;;;23.32;36.84;98853.62;4348088;33;34633;-64
2023/11/29 09:09:12;;;;;;;8.45;3.25;;;;;;;23.33;36.83;98866.16;4348302;33;33568;-64
2023/11/29 09:11:40;;;;;;;15.25;4.05;;;;;;;23.32;36.78;98873.50;4348126;33;33769;-64
2023/11/29 09:14:08;;;;;;;9.55;3.67;;;;;;;23.32;36.79;98875.41;4335069;33;33986;-66
2023/11/29 09:16:36;;;;;;;5.62;2.95;;;;;;;23.33;36.76;98874.31;4348000;33;34168;-64
2023/11/29 09:19:03;;;;;;;6.70;3.40;;;;;;;23.32;36.72;98876.22;4347555;33;34403;-65
2023/11/29 09:21:35;;;;;;;5.82;3.55;;;;;;;23.31;36.73;98877.28;4347750;33;33531;-66
2023/11/29 09:24:04;;;;;;;9.55;3.20;;;;;;;23.30;36.68;98883.78;4348137;33;34035;-67
2023/11/29 09:26:32;;;;;;;8.38;3.47;;;;;;;23.30;36.64;98882.97;4348115;33;34256;-65
2023/11/29 09:29:00;;;;;;;8.88;3.42;;;;;;;23.29;36.52;98884.06;4347913;33;34211;-66
2023/11/29 09:31:27;;;;;;;6.65;3.72;;;;;;;23.28;36.57;98877.78;4347769;33;33904;-66
2023/11/29 09:33:57;;;;;;;5.50;3.20;;;;;;;23.28;36.58;98879.69;4347912;32;34053;-65
2023/11/29 09:36:24;;;;;;;5.85;3.30;;;;;;;23.26;36.55;98869.03;4334662;33;33746;-66
2023/11/29 09:38:52;;;;;;;7.37;3.30;;;;;;;23.24;36.58;98863.03;4347370;33;33611;-66
2023/11/29 09:41:20;;;;;;;9.05;4.53;;;;;;;23.23;36.49;98864.09;4345450;33;33586;-66
2023/11/29 09:43:48;;;;;;;16.35;9.00;;;;;;;23.22;35.84;98865.16;4322367;33;34986;-61
2023/11/29 09:46:15;;;;;;;13.88;10.27;;;;;;;23.16;30.04;98868.88;4322311;33;34668;-61
2023/11/29 09:48:43;;;;;;;18.48;10.80;;;;;;;22.94;26.71;98863.31;4347542;33;34198;-62
2023/11/29 09:51:11;;;;;;;16.15;10.50;;;;;;;22.76;25.79;98860.81;4346521;33;34074;-61
2023/11/29 09:53:38;;;;;;;14.70;10.10;;;;;;;22.62;26.80;98873.91;4346046;33;34027;-61
2023/11/29 09:56:06;;;;;;;15.10;8.95;;;;;;;22.60;28.98;98881.44;4358523;32;34728;-61
2023/11/29 09:58:34;;;;;;;12.50;7.68;;;;;;;22.61;29.96;98878.47;4335775;32;33936;-61
2023/11/29 10:01:02;;;;;;;10.70;7.20;;;;;;;22.65;29.87;98882.38;4347568;33;33788;-61
2023/11/29 10:03:30;;;;;;;10.65;7.15;;;;;;;22.73;29.75;98883.06;4347685;33;33490;-60
2023/11/29 10:05:58;;;;;;;10.52;6.32;;;;;;;22.85;29.93;98886.56;4347690;33;34273;-61
2023/11/29 10:08:25;;;;;;;8.77;6.12;;;;;;;23.01;30.15;98885.75;4347703;33;33545;-59
2023/11/29 10:10:54;;;;;;;9.10;5.95;;;;;;;23.17;30.41;98886.84;4349620;32;34026;-59
2023/11/29 10:13:22;;;;;;;10.55;6.20;;;;;;;23.33;30.64;98885.22;4362465;32;34932;-61
2023/11/29 10:15:50;;;;;;;8.45;6.03;;;;;;;23.49;30.84;98889.00;4362545;32;34559;-61
2023/11/29 10:18:18;;;;;;;7.87;5.22;;;;;;;23.63;30.96;98896.56;4362596;32;33452;-60
2023/11/29 10:20:50;;;;;;;7.80;5.53;;;;;;;23.79;31.07;98896.84;4347977;32;34049;-61
2023/11/29 10:23:33;;;;;;;8.35;5.40;;;;;;;23.93;31.20;98901.66;4347639;33;34242;-61
2023/11/29 10:26:03;;;;;;;7.68;5.00;;;;;;;24.06;31.27;98888.72;4347551;33;34648;-61
2023/11/29 10:28:30;;;;;;;9.25;5.40;;;;;;;24.17;31.36;98882.34;4347926;33;33577;-61
2023/11/29 10:30:58;;;;;;;9.30;5.50;;;;;;;24.26;31.39;98882.75;4346234;33;33844;-61
2023/11/29 10:33:26;;;;;;;10.68;5.47;;;;;;;24.36;31.43;98885.59;4334814;33;34954;-61
2023/11/29 10:35:54;;;;;;;8.70;4.97;;;;;;;24.47;31.48;98884.62;4330126;33;33021;-60
2023/11/29 10:38:22;;;;;;;6.45;4.65;;;;;;;24.59;31.52;98890.78;4346665;33;33298;-61
2023/11/29 10:40:49;;;;;;;8.32;4.75;;;;;;;24.67;31.56;98887.63;4338667;32;33984;-63
2023/11/29 10:43:20;;;;;;;6.45;4.37;;;;;;;24.78;31.60;98891.25;4334023;33;34059;-62
2023/11/29 10:45:47;;;;;;;8.23;4.80;;;;;;;24.88;31.65;98893.25;4332613;33;34651;-62
2023/11/29 10:48:16;;;;;;;6.95;4.45;;;;;;;24.98;31.65;98898.81;4344117;33;33643;-61
2023/11/29 10:50:47;;;;;;;8.25;4.35;;;;;;;25.07;31.65;98894.56;4345759;33;34318;-63
2023/11/29 10:53:16;;;;;;;8.63;4.72;;;;;;;25.14;31.69;98895.19;4346975;33;34006;-62
2023/11/29 10:55:43;;;;;;;7.78;4.40;;;;;;;25.25;31.68;98893.38;4346272;33;34056;-61
2023/11/29 10:58:18;;;;;;;7.93;4.70;;;;;;;25.34;31.68;98896.44;4345567;33;33841;-63
2023/11/29 11:00:46;;;;;;;6.55;4.30;;;;;;;25.44;31.68;98897.34;4344007;33;34501;-62
2023/11/29 11:03:40;;;;;;;6.65;4.05;;;;;;;25.54;31.67;98893.03;4347413;33;33873;-62
2023/11/29 11:06:22;;;;;;;7.70;4.43;;;;;;;25.65;31.65;98898.31;4343940;33;34744;-62
2023/11/29 11:08:50;;;;;;;8.20;4.40;;;;;;;25.74;31.65;98889.59;4342527;33;33317;-61
2023/11/29 11:11:43;;;;;;;7.93;4.97;;;;;;;25.79;31.66;98892.44;4339544;33;34740;-61
2023/11/29 11:14:33;;;;;;;9.13;4.28;;;;;;;25.89;31.67;98885.09;4345422;33;34128;-62
2023/11/29 11:17:07;;;;;;;6.68;4.22;;;;;;;25.90;31.62;98888.66;4344605;33;34192;-61
2023/11/29 11:19:38;;;;;;;9.48;4.10;;;;;;;25.95;31.47;98889.50;4340242;33;33233;-59
2023/11/29 11:22:14;;;;;;;6.97;4.30;;;;;;;26.01;31.41;98887.63;4344557;33;34616;-61
2023/11/29 11:25:06;;;;;;;7.93;4.70;;;;;;;26.06;31.36;98895.00;4352664;32;33791;-61
2023/11/29 11:27:43;;;;;;;10.38;4.55;;;;;;;26.13;31.25;98882.75;4350714;32;34052;-62
2023/11/29 11:30:14;;;;;;;9.23;4.72;;;;;;;26.19;31.09;98880.87;4346713;33;33094;-62
2023/11/29 11:32:47;;;;;;;8.35;5.28;;;;;;;26.20;30.85;98887.97;4345479;33;34499;-62
2023/11/29 11:37:47;;;;;;;10.10;4.60;;;;;;;26.31;30.66;98894.31;4344035;32;33789;-62
2023/11/29 11:40:15;;;;;;;8.40;4.35;;;;;;;26.34;30.62;98900.06;4345397;33;34399;-62